sensor_id;sensor_type;location;lat;lon;timestamp;pressure;altitude;pressure_sealevel;temperature;humidity
47080;BME280;33067;49.296;14.470;2023-04-04T00:00:24;97810.47;;;3.06;34.36
47080;BME280;33067;49.296;14.470;2023-04-04T00:02:49;97807.68;;;2.66;34.54
47080;BME280;33067;49.296;14.470;2023-04-04T00:05:15;97803.36;;;3.00;34.79
47080;BME280;33067;49.296;14.470;2023-04-04T00:07:40;97804.09;;;2.04;35.71
47080;BME280;33067;49.296;14.470;2023-04-04T00:10:07;97799.02;;;2.54;35.20
47080;BME280;33067;49.296;14.470;2023-04-04T00:12:32;97798.79;;;2.35;35.36
47080;BME280;33067;49.296;14.470;2023-04-04T00:14:57;97794.75;;;2.15;35.38
47080;BME280;33067;49.296;14.470;2023-04-04T00:17:23;97795.63;;;1.93;35.55
47080;BME280;33067;49.296;14.470;2023-04-04T00:19:48;97795.46;;;1.89;35.70
47080;BME280;33067;49.296;14.470;2023-04-04T00:22:14;97794.61;;;2.35;35.21
47080;BME280;33067;49.296;14.470;2023-04-04T00:24:40;97791.59;;;2.86;35.11
47080;BME280;33067;49.296;14.470;2023-04-04T00:27:06;97790.64;;;2.46;35.02
47080;BME280;33067;49.296;14.470;2023-04-04T00:29:31;97787.67;;;1.99;35.99
47080;BME280;33067;49.296;14.470;2023-04-04T00:31:57;97784.86;;;2.17;35.75
47080;BME280;33067;49.296;14.470;2023-04-04T00:34:22;97782.57;;;1.81;36.59
47080;BME280;33067;49.296;14.470;2023-04-04T00:36:48;97777.96;;;1.90;36.26
47080;BME280;33067;49.296;14.470;2023-04-04T00:39:13;97775.60;;;1.75;36.69
47080;BME280;33067;49.296;14.470;2023-04-04T00:41:38;97769.97;;;2.82;35.86
47080;BME280;33067;49.296;14.470;2023-04-04T00:44:05;97769.95;;;2.99;35.21
47080;BME280;33067;49.296;14.470;2023-04-04T00:46:29;97771.03;;;2.26;35.67
47080;BME280;33067;49.296;14.470;2023-04-04T00:48:55;97769.23;;;1.83;36.41
47080;BME280;33067;49.296;14.470;2023-04-04T00:51:21;97765.73;;;2.33;36.12
47080;BME280;33067;49.296;14.470;2023-04-04T00:53:47;97764.08;;;2.15;35.85
47080;BME280;33067;49.296;14.470;2023-04-04T00:56:12;97764.05;;;2.05;35.86
47080;BME280;33067;49.296;14.470;2023-04-04T00:58:37;97760.90;;;2.81;35.57
47080;BME280;33067;49.296;14.470;2023-04-04T01:01:03;97761.36;;;2.56;35.29
47080;BME280;33067;49.296;14.470;2023-04-04T01:03:29;97761.15;;;2.76;35.02
47080;BME280;33067;49.296;14.470;2023-04-04T01:05:54;97759.68;;;3.30;34.57
47080;BME280;33067;49.296;14.470;2023-04-04T01:08:21;97759.00;;;3.36;34.08
47080;BME280;33067;49.296;14.470;2023-04-04T01:10:45;97762.12;;;2.99;34.27
47080;BME280;33067;49.296;14.470;2023-04-04T01:13:11;97755.57;;;3.41;34.11
47080;BME280;33067;49.296;14.470;2023-04-04T01:15:36;97755.55;;;3.86;33.58
47080;BME280;33067;49.296;14.470;2023-04-04T01:18:03;97755.04;;;3.49;33.53
47080;BME280;33067;49.296;14.470;2023-04-04T01:20:29;97753.28;;;3.55;33.76
47080;BME280;33067;49.296;14.470;2023-04-04T01:22:54;97751.96;;;3.59;33.98
47080;BME280;33067;49.296;14.470;2023-04-04T01:25:25;97749.36;;;3.65;34.30
47080;BME280;33067;49.296;14.470;2023-04-04T01:27:44;97745.47;;;3.11;34.59
47080;BME280;33067;49.296;14.470;2023-04-04T01:30:11;97747.76;;;2.76;35.24
47080;BME280;33067;49.296;14.470;2023-04-04T01:32:40;97748.33;;;2.36;35.56
47080;BME280;33067;49.296;14.470;2023-04-04T01:35:07;97747.71;;;2.86;35.35
47080;BME280;33067;49.296;14.470;2023-04-04T01:37:29;97747.37;;;2.68;35.48
47080;BME280;33067;49.296;14.470;2023-04-04T01:39:55;97742.25;;;3.15;34.96
47080;BME280;33067;49.296;14.470;2023-04-04T01:42:17;97738.46;;;3.35;34.43
47080;BME280;33067;49.296;14.470;2023-04-04T01:44:43;97735.37;;;3.58;34.38
47080;BME280;33067;49.296;14.470;2023-04-04T01:47:07;97732.30;;;3.73;33.93
47080;BME280;33067;49.296;14.470;2023-04-04T01:49:33;97734.11;;;4.04;33.55
47080;BME280;33067;49.296;14.470;2023-04-04T01:51:58;97734.75;;;4.24;33.23
47080;BME280;33067;49.296;14.470;2023-04-04T01:54:24;97736.72;;;4.37;32.82
47080;BME280;33067;49.296;14.470;2023-04-04T01:56:50;97735.79;;;3.98;32.97
47080;BME280;33067;49.296;14.470;2023-04-04T01:59:15;97734.19;;;4.12;33.03
47080;BME280;33067;49.296;14.470;2023-04-04T02:01:41;97734.65;;;3.81;33.15
47080;BME280;33067;49.296;14.470;2023-04-04T02:04:07;97737.82;;;3.90;33.25
47080;BME280;33067;49.296;14.470;2023-04-04T02:06:32;97734.94;;;4.26;33.02
47080;BME280;33067;49.296;14.470;2023-04-04T02:08:58;97735.59;;;3.41;33.60
47080;BME280;33067;49.296;14.470;2023-04-04T02:12:59;97736.03;;;3.92;33.74
47080;BME280;33067;49.296;14.470;2023-04-04T02:15:25;97732.41;;;3.49;34.34
47080;BME280;33067;49.296;14.470;2023-04-04T02:17:50;97736.96;;;3.10;34.95
47080;BME280;33067;49.296;14.470;2023-04-04T02:20:16;97735.47;;;3.11;35.57
47080;BME280;33067;49.296;14.470;2023-04-04T02:22:41;97731.78;;;2.69;35.56
47080;BME280;33067;49.296;14.470;2023-04-04T02:25:07;97731.53;;;2.88;35.88
47080;BME280;33067;49.296;14.470;2023-04-04T02:27:32;97727.44;;;2.87;35.80
47080;BME280;33067;49.296;14.470;2023-04-04T02:29:58;97724.13;;;3.14;35.99
47080;BME280;33067;49.296;14.470;2023-04-04T02:32:23;97722.63;;;2.68;36.68
47080;BME280;33067;49.296;14.470;2023-04-04T02:34:49;97725.05;;;2.97;36.19
47080;BME280;33067;49.296;14.470;2023-04-04T02:37:14;97726.91;;;3.38;35.80
47080;BME280;33067;49.296;14.470;2023-04-04T02:39:40;97724.84;;;3.25;36.00
47080;BME280;33067;49.296;14.470;2023-04-04T02:42:06;97730.03;;;3.58;35.77
47080;BME280;33067;49.296;14.470;2023-04-04T02:44:31;97733.12;;;3.32;35.94
47080;BME280;33067;49.296;14.470;2023-04-04T02:46:57;97729.20;;;3.80;35.42
47080;BME280;33067;49.296;14.470;2023-04-04T02:49:23;97727.86;;;3.95;35.41
47080;BME280;33067;49.296;14.470;2023-04-04T02:51:48;97725.61;;;3.99;35.29
47080;BME280;33067;49.296;14.470;2023-04-04T02:54:13;97725.39;;;4.19;34.98
47080;BME280;33067;49.296;14.470;2023-04-04T02:56:39;97722.90;;;3.92;35.05
47080;BME280;33067;49.296;14.470;2023-04-04T02:59:05;97723.59;;;3.70;34.99
47080;BME280;33067;49.296;14.470;2023-04-04T03:01:30;97725.43;;;3.63;35.19
47080;BME280;33067;49.296;14.470;2023-04-04T03:03:56;97724.18;;;3.71;35.21
47080;BME280;33067;49.296;14.470;2023-04-04T03:06:21;97727.92;;;4.25;35.05
47080;BME280;33067;49.296;14.470;2023-04-04T03:08:47;97727.48;;;4.26;34.77
47080;BME280;33067;49.296;14.470;2023-04-04T03:11:16;97728.16;;;4.67;34.46
47080;BME280;33067;49.296;14.470;2023-04-04T03:13:38;97728.78;;;4.12;34.49
47080;BME280;33067;49.296;14.470;2023-04-04T03:16:04;97725.92;;;4.14;34.58
47080;BME280;33067;49.296;14.470;2023-04-04T03:18:29;97725.37;;;4.02;34.80
47080;BME280;33067;49.296;14.470;2023-04-04T03:20:54;97725.71;;;4.46;34.84
47080;BME280;33067;49.296;14.470;2023-04-04T03:23:20;97725.46;;;3.83;34.93
47080;BME280;33067;49.296;14.470;2023-04-04T03:25:46;97726.09;;;3.78;35.63
47080;BME280;33067;49.296;14.470;2023-04-04T03:28:11;97721.71;;;3.83;35.62
47080;BME280;33067;49.296;14.470;2023-04-04T03:30:37;97724.93;;;4.12;35.32
47080;BME280;33067;49.296;14.470;2023-04-04T03:33:03;97724.82;;;3.71;35.43
47080;BME280;33067;49.296;14.470;2023-04-04T03:35:28;97723.31;;;3.87;35.70
47080;BME280;33067;49.296;14.470;2023-04-04T03:37:53;97720.61;;;3.73;35.24
47080;BME280;33067;49.296;14.470;2023-04-04T03:40:18;97720.70;;;3.90;35.55
47080;BME280;33067;49.296;14.470;2023-04-04T03:42:44;97719.53;;;3.76;35.49
47080;BME280;33067;49.296;14.470;2023-04-04T03:45:10;97720.56;;;3.24;35.58
47080;BME280;33067;49.296;14.470;2023-04-04T03:47:35;97719.38;;;3.48;35.73
47080;BME280;33067;49.296;14.470;2023-04-04T03:50:01;97720.02;;;3.70;35.76
47080;BME280;33067;49.296;14.470;2023-04-04T03:52:26;97719.13;;;3.84;35.53
47080;BME280;33067;49.296;14.470;2023-04-04T03:54:52;97721.45;;;3.65;35.71
47080;BME280;33067;49.296;14.470;2023-04-04T03:57:17;97725.09;;;3.44;36.26
47080;BME280;33067;49.296;14.470;2023-04-04T03:59:43;97725.83;;;3.33;36.38
47080;BME280;33067;49.296;14.470;2023-04-04T04:02:08;97723.67;;;3.18;36.52
47080;BME280;33067;49.296;14.470;2023-04-04T04:04:33;97726.07;;;3.30;36.50
47080;BME280;33067;49.296;14.470;2023-04-04T04:06:59;97721.58;;;3.16;36.68
47080;BME280;33067;49.296;14.470;2023-04-04T04:09:24;97720.30;;;3.36;36.44
47080;BME280;33067;49.296;14.470;2023-04-04T04:11:50;97718.72;;;3.24;36.47
47080;BME280;33067;49.296;14.470;2023-04-04T04:14:15;97720.76;;;3.80;36.13
47080;BME280;33067;49.296;14.470;2023-04-04T04:16:40;97725.14;;;3.68;36.56
47080;BME280;33067;49.296;14.470;2023-04-04T04:19:06;97725.76;;;3.14;36.85
47080;BME280;33067;49.296;14.470;2023-04-04T04:21:32;97722.30;;;3.65;36.54
47080;BME280;33067;49.296;14.470;2023-04-04T04:23:57;97725.40;;;2.59;37.43
47080;BME280;33067;49.296;14.470;2023-04-04T04:26:22;97722.95;;;3.14;36.93
47080;BME280;33067;49.296;14.470;2023-04-04T04:28:48;97724.29;;;2.95;37.10
47080;BME280;33067;49.296;14.470;2023-04-04T04:31:14;97728.17;;;2.84;37.16
47080;BME280;33067;49.296;14.470;2023-04-04T04:33:39;97729.55;;;3.31;36.78
47080;BME280;33067;49.296;14.470;2023-04-04T04:36:05;97729.27;;;3.45;36.51
47080;BME280;33067;49.296;14.470;2023-04-04T04:38:31;97726.58;;;3.24;36.65
47080;BME280;33067;49.296;14.470;2023-04-04T04:40:56;97726.60;;;3.19;36.84
47080;BME280;33067;49.296;14.470;2023-04-04T04:43:22;97726.63;;;2.63;37.70
47080;BME280;33067;49.296;14.470;2023-04-04T04:45:47;97720.79;;;2.63;37.35
47080;BME280;33067;49.296;14.470;2023-04-04T04:48:13;97722.13;;;2.82;37.16
47080;BME280;33067;49.296;14.470;2023-04-04T04:50:39;97724.16;;;2.42;37.73
47080;BME280;33067;49.296;14.470;2023-04-04T04:53:04;97721.76;;;2.77;37.87
47080;BME280;33067;49.296;14.470;2023-04-04T04:55:30;97719.46;;;2.91;37.65
47080;BME280;33067;49.296;14.470;2023-04-04T04:57:55;97716.79;;;2.79;37.55
47080;BME280;33067;49.296;14.470;2023-04-04T05:00:20;97718.31;;;3.40;37.15
47080;BME280;33067;49.296;14.470;2023-04-04T05:02:46;97717.98;;;3.02;37.39
47080;BME280;33067;49.296;14.470;2023-04-04T05:05:11;97721.55;;;3.24;37.16
47080;BME280;33067;49.296;14.470;2023-04-04T05:07:36;97722.60;;;3.42;37.07
47080;BME280;33067;49.296;14.470;2023-04-04T05:10:02;97720.25;;;3.07;37.10
47080;BME280;33067;49.296;14.470;2023-04-04T05:12:28;97725.95;;;2.86;37.35
47080;BME280;33067;49.296;14.470;2023-04-04T05:14:53;97727.03;;;2.57;37.10
47080;BME280;33067;49.296;14.470;2023-04-04T05:17:19;97725.78;;;3.22;36.72
47080;BME280;33067;49.296;14.470;2023-04-04T05:19:44;97729.48;;;3.48;36.98
47080;BME280;33067;49.296;14.470;2023-04-04T05:22:10;97730.57;;;3.31;36.59
47080;BME280;33067;49.296;14.470;2023-04-04T05:24:36;97726.44;;;3.40;36.25
47080;BME280;33067;49.296;14.470;2023-04-04T05:27:01;97727.76;;;3.18;36.74
47080;BME280;33067;49.296;14.470;2023-04-04T05:29:26;97727.41;;;3.00;37.15
47080;BME280;33067;49.296;14.470;2023-04-04T05:31:51;97726.87;;;2.98;36.97
47080;BME280;33067;49.296;14.470;2023-04-04T05:34:17;97726.55;;;2.76;37.28
47080;BME280;33067;49.296;14.470;2023-04-04T05:36:42;97727.11;;;2.66;37.62
47080;BME280;33067;49.296;14.470;2023-04-04T05:39:07;97730.25;;;2.63;37.71
47080;BME280;33067;49.296;14.470;2023-04-04T05:41:33;97732.31;;;2.54;38.05
47080;BME280;33067;49.296;14.470;2023-04-04T05:43:59;97733.23;;;2.46;38.07
47080;BME280;33067;49.296;14.470;2023-04-04T05:46:25;97733.48;;;2.18;38.40
47080;BME280;33067;49.296;14.470;2023-04-04T05:48:50;97732.22;;;2.83;37.99
47080;BME280;33067;49.296;14.470;2023-04-04T05:51:15;97732.67;;;2.84;38.10
47080;BME280;33067;49.296;14.470;2023-04-04T05:53:41;97737.59;;;2.28;38.68
47080;BME280;33067;49.296;14.470;2023-04-04T05:56:06;97742.94;;;1.99;38.48
47080;BME280;33067;49.296;14.470;2023-04-04T05:58:32;97742.99;;;1.66;39.52
47080;BME280;33067;49.296;14.470;2023-04-04T06:00:57;97739.48;;;2.71;37.96
47080;BME280;33067;49.296;14.470;2023-04-04T06:03:23;97744.89;;;1.91;38.42
47080;BME280;33067;49.296;14.470;2023-04-04T06:05:50;97743.57;;;2.20;38.82
47080;BME280;33067;49.296;14.470;2023-04-04T06:08:14;97740.74;;;3.28;37.72
47080;BME280;33067;49.296;14.470;2023-04-04T06:10:40;97738.24;;;2.84;37.52
47080;BME280;33067;49.296;14.470;2023-04-04T06:13:05;97738.55;;;2.83;37.29
47080;BME280;33067;49.296;14.470;2023-04-04T06:15:31;97735.74;;;3.12;36.87
47080;BME280;33067;49.296;14.470;2023-04-04T06:17:56;97737.37;;;2.41;37.93
47080;BME280;33067;49.296;14.470;2023-04-04T06:20:22;97738.89;;;3.13;37.38
47080;BME280;33067;49.296;14.470;2023-04-04T06:22:47;97739.81;;;3.42;35.93
47080;BME280;33067;49.296;14.470;2023-04-04T06:25:13;97736.69;;;4.11;34.74
47080;BME280;33067;49.296;14.470;2023-04-04T06:27:38;97748.58;;;2.54;34.87
47080;BME280;33067;49.296;14.470;2023-04-04T06:30:04;97747.85;;;2.11;36.56
47080;BME280;33067;49.296;14.470;2023-04-04T06:32:30;97740.46;;;3.16;35.14
47080;BME280;33067;49.296;14.470;2023-04-04T06:34:54;97741.42;;;3.23;35.10
47080;BME280;33067;49.296;14.470;2023-04-04T06:37:20;97738.37;;;2.78;34.86
47080;BME280;33067;49.296;14.470;2023-04-04T06:39:45;97738.39;;;3.46;34.73
47080;BME280;33067;49.296;14.470;2023-04-04T06:42:10;97741.39;;;2.99;33.82
47080;BME280;33067;49.296;14.470;2023-04-04T06:44:36;97740.67;;;3.26;33.96
47080;BME280;33067;49.296;14.470;2023-04-04T06:47:01;97739.10;;;3.95;35.49
47080;BME280;33067;49.296;14.470;2023-04-04T06:49:27;97739.83;;;3.86;33.72
47080;BME280;33067;49.296;14.470;2023-04-04T06:51:52;97736.14;;;3.23;33.54
47080;BME280;33067;49.296;14.470;2023-04-04T06:54:18;97739.31;;;2.80;34.25
47080;BME280;33067;49.296;14.470;2023-04-04T06:56:44;97739.53;;;2.91;34.41
47080;BME280;33067;49.296;14.470;2023-04-04T06:59:09;97737.02;;;4.15;33.15
47080;BME280;33067;49.296;14.470;2023-04-04T07:01:35;97734.13;;;4.06;33.04
47080;BME280;33067;49.296;14.470;2023-04-04T07:04:00;97735.40;;;2.98;33.24
47080;BME280;33067;49.296;14.470;2023-04-04T07:06:26;97731.64;;;3.58;33.28
47080;BME280;33067;49.296;14.470;2023-04-04T07:08:52;97731.82;;;4.14;32.08
47080;BME280;33067;49.296;14.470;2023-04-04T07:11:17;97727.67;;;3.87;30.97
47080;BME280;33067;49.296;14.470;2023-04-04T07:13:43;97729.44;;;3.54;30.70
47080;BME280;33067;49.296;14.470;2023-04-04T07:16:09;97732.69;;;3.79;30.56
47080;BME280;33067;49.296;14.470;2023-04-04T07:18:34;97733.89;;;3.21;31.44
47080;BME280;33067;49.296;14.470;2023-04-04T07:21:00;97734.39;;;1.98;33.12
47080;BME280;33067;49.296;14.470;2023-04-04T07:23:26;97736.98;;;1.95;34.06
47080;BME280;33067;49.296;14.470;2023-04-04T07:25:51;97739.61;;;2.74;33.18
47080;BME280;33067;49.296;14.470;2023-04-04T07:28:17;97738.77;;;2.21;32.85
47080;BME280;33067;49.296;14.470;2023-04-04T07:30:42;97740.91;;;2.50;32.64
47080;BME280;33067;49.296;14.470;2023-04-04T07:33:08;97741.14;;;2.70;31.55
47080;BME280;33067;49.296;14.470;2023-04-04T07:35:34;97742.40;;;3.19;31.31
47080;BME280;33067;49.296;14.470;2023-04-04T07:37:59;97742.26;;;3.19;31.44
47080;BME280;33067;49.296;14.470;2023-04-04T07:40:24;97739.42;;;2.80;32.36
47080;BME280;33067;49.296;14.470;2023-04-04T07:42:50;97737.47;;;3.30;31.97
47080;BME280;33067;49.296;14.470;2023-04-04T07:45:16;97734.38;;;2.43;32.99
47080;BME280;33067;49.296;14.470;2023-04-04T07:47:42;97739.28;;;2.14;33.92
47080;BME280;33067;49.296;14.470;2023-04-04T07:50:07;97740.59;;;2.47;33.59
47080;BME280;33067;49.296;14.470;2023-04-04T07:52:32;97747.65;;;1.92;35.07
47080;BME280;33067;49.296;14.470;2023-04-04T07:54:57;97743.21;;;2.47;33.95
47080;BME280;33067;49.296;14.470;2023-04-04T07:57:23;97739.41;;;2.57;33.93
47080;BME280;33067;49.296;14.470;2023-04-04T07:59:49;97740.83;;;1.77;34.68
47080;BME280;33067;49.296;14.470;2023-04-04T08:02:14;97738.66;;;1.42;35.31
47080;BME280;33067;49.296;14.470;2023-04-04T08:04:40;97740.40;;;2.23;32.79
47080;BME280;33067;49.296;14.470;2023-04-04T08:07:05;97739.83;;;1.62;32.57
47080;BME280;33067;49.296;14.470;2023-04-04T08:09:31;97733.91;;;2.33;33.56
47080;BME280;33067;49.296;14.470;2023-04-04T08:11:56;97741.36;;;1.69;32.56
47080;BME280;33067;49.296;14.470;2023-04-04T08:14:21;97738.55;;;2.71;31.85
47080;BME280;33067;49.296;14.470;2023-04-04T08:16:47;97746.46;;;2.99;30.32
47080;BME280;33067;49.296;14.470;2023-04-04T08:19:12;97736.22;;;2.90;29.72
47080;BME280;33067;49.296;14.470;2023-04-04T08:21:38;97742.20;;;2.64;30.59
47080;BME280;33067;49.296;14.470;2023-04-04T08:24:03;97736.22;;;2.39;30.22
47080;BME280;33067;49.296;14.470;2023-04-04T08:26:29;97738.95;;;2.84;30.09
47080;BME280;33067;49.296;14.470;2023-04-04T08:28:54;97739.45;;;2.45;31.01
47080;BME280;33067;49.296;14.470;2023-04-04T08:31:20;97745.66;;;1.66;32.56
47080;BME280;33067;49.296;14.470;2023-04-04T08:33:46;97741.51;;;1.79;32.20
47080;BME280;33067;49.296;14.470;2023-04-04T08:36:11;97728.68;;;2.11;32.79
47080;BME280;33067;49.296;14.470;2023-04-04T08:38:37;97741.06;;;1.12;33.96
47080;BME280;33067;49.296;14.470;2023-04-04T08:41:03;97735.69;;;2.01;33.26
47080;BME280;33067;49.296;14.470;2023-04-04T08:43:31;97729.97;;;2.52;32.84
47080;BME280;33067;49.296;14.470;2023-04-04T08:45:54;97727.33;;;2.86;32.63
47080;BME280;33067;49.296;14.470;2023-04-04T08:48:20;97726.54;;;3.56;31.50
47080;BME280;33067;49.296;14.470;2023-04-04T08:50:45;97731.72;;;3.09;32.30
47080;BME280;33067;49.296;14.470;2023-04-04T08:53:11;97733.69;;;3.19;32.30
47080;BME280;33067;49.296;14.470;2023-04-04T08:55:37;97731.51;;;2.58;33.53
47080;BME280;33067;49.296;14.470;2023-04-04T08:58:02;97740.03;;;1.82;35.42
47080;BME280;33067;49.296;14.470;2023-04-04T09:00:28;97747.14;;;0.85;36.07
47080;BME280;33067;49.296;14.470;2023-04-04T09:02:57;97745.59;;;1.73;34.74
47080;BME280;33067;49.296;14.470;2023-04-04T09:05:19;97745.57;;;0.28;35.65
47080;BME280;33067;49.296;14.470;2023-04-04T09:07:44;97746.58;;;1.18;35.71
47080;BME280;33067;49.296;14.470;2023-04-04T09:10:10;97751.50;;;2.01;33.35
47080;BME280;33067;49.296;14.470;2023-04-04T09:12:36;97750.70;;;1.59;33.23
47080;BME280;33067;49.296;14.470;2023-04-04T09:15:01;97745.82;;;1.63;33.40
47080;BME280;33067;49.296;14.470;2023-04-04T09:17:26;97742.55;;;1.43;34.18
47080;BME280;33067;49.296;14.470;2023-04-04T09:19:51;97738.83;;;2.05;32.53
47080;BME280;33067;49.296;14.470;2023-04-04T09:22:17;97743.50;;;1.25;33.27
47080;BME280;33067;49.296;14.470;2023-04-04T09:24:43;97734.50;;;2.65;32.30
47080;BME280;33067;49.296;14.470;2023-04-04T09:27:10;97737.53;;;0.99;33.83
47080;BME280;33067;49.296;14.470;2023-04-04T09:29:35;97737.04;;;2.25;32.79
47080;BME280;33067;49.296;14.470;2023-04-04T09:32:00;97742.88;;;1.66;33.21
47080;BME280;33067;49.296;14.470;2023-04-04T09:34:27;97746.30;;;1.15;34.76
47080;BME280;33067;49.296;14.470;2023-04-04T09:36:52;97742.99;;;1.68;34.52
47080;BME280;33067;49.296;14.470;2023-04-04T09:39:18;97744.45;;;1.28;35.36
47080;BME280;33067;49.296;14.470;2023-04-04T09:41:43;97743.04;;;1.48;35.02
47080;BME280;33067;49.296;14.470;2023-04-04T09:44:10;97747.63;;;1.89;35.29
47080;BME280;33067;49.296;14.470;2023-04-04T09:46:33;97743.24;;;2.58;34.31
47080;BME280;33067;49.296;14.470;2023-04-04T09:48:59;97745.27;;;1.27;32.91
47080;BME280;33067;49.296;14.470;2023-04-04T09:51:24;97746.58;;;1.21;33.76
47080;BME280;33067;49.296;14.470;2023-04-04T09:56:15;97737.71;;;2.72;31.59
47080;BME280;33067;49.296;14.470;2023-04-04T09:58:45;97740.68;;;2.62;30.81
47080;BME280;33067;49.296;14.470;2023-04-04T10:01:08;97737.71;;;2.16;31.55
47080;BME280;33067;49.296;14.470;2023-04-04T10:03:32;97733.01;;;2.66;31.07
47080;BME280;33067;49.296;14.470;2023-04-04T10:05:59;97730.87;;;1.99;32.74
47080;BME280;33067;49.296;14.470;2023-04-04T10:08:23;97737.41;;;1.83;32.92
47080;BME280;33067;49.296;14.470;2023-04-04T10:10:48;97725.53;;;2.69;31.83
47080;BME280;33067;49.296;14.470;2023-04-04T10:13:22;97714.74;;;3.28;30.93
47080;BME280;33067;49.296;14.470;2023-04-04T10:15:45;97716.74;;;2.14;31.51
47080;BME280;33067;49.296;14.470;2023-04-04T10:18:04;97708.39;;;1.90;30.78
47080;BME280;33067;49.296;14.470;2023-04-04T10:20:31;97713.12;;;2.46;29.96
47080;BME280;33067;49.296;14.470;2023-04-04T10:22:55;97709.53;;;2.82;30.94
47080;BME280;33067;49.296;14.470;2023-04-04T10:25:20;97705.76;;;2.88;30.23
47080;BME280;33067;49.296;14.470;2023-04-04T10:27:46;97709.03;;;2.39;31.52
47080;BME280;33067;49.296;14.470;2023-04-04T10:30:13;97711.73;;;3.04;30.40
47080;BME280;33067;49.296;14.470;2023-04-04T10:32:51;97711.36;;;2.85;30.29
47080;BME280;33067;49.296;14.470;2023-04-04T10:35:05;97710.93;;;3.16;30.58
47080;BME280;33067;49.296;14.470;2023-04-04T10:37:33;97714.12;;;2.88;30.41
47080;BME280;33067;49.296;14.470;2023-04-04T10:40:00;97709.67;;;2.09;31.07
47080;BME280;33067;49.296;14.470;2023-04-04T10:42:19;97709.28;;;1.21;32.32
47080;BME280;33067;49.296;14.470;2023-04-04T10:44:46;97705.27;;;2.86;29.66
47080;BME280;33067;49.296;14.470;2023-04-04T10:47:16;97702.31;;;4.48;29.50
47080;BME280;33067;49.296;14.470;2023-04-04T10:49:37;97704.44;;;3.42;30.00
47080;BME280;33067;49.296;14.470;2023-04-04T10:52:02;97700.55;;;3.58;28.56
47080;BME280;33067;49.296;14.470;2023-04-04T10:54:27;97689.82;;;3.45;29.41
47080;BME280;33067;49.296;14.470;2023-04-04T10:56:54;97684.76;;;4.50;30.15
47080;BME280;33067;49.296;14.470;2023-04-04T10:59:18;97679.59;;;2.71;28.92
47080;BME280;33067;49.296;14.470;2023-04-04T11:01:49;97679.80;;;2.63;30.03
47080;BME280;33067;49.296;14.470;2023-04-04T11:04:16;97685.63;;;2.13;30.13
47080;BME280;33067;49.296;14.470;2023-04-04T11:09:01;97678.92;;;3.33;28.68
47080;BME280;33067;49.296;14.470;2023-04-04T11:11:26;97680.19;;;4.14;28.13
47080;BME280;33067;49.296;14.470;2023-04-04T11:13:58;97681.63;;;4.26;28.39
47080;BME280;33067;49.296;14.470;2023-04-04T11:16:17;97680.32;;;2.77;30.45
47080;BME280;33067;49.296;14.470;2023-04-04T11:18:45;97677.81;;;2.60;31.53
47080;BME280;33067;49.296;14.470;2023-04-04T11:21:09;97681.11;;;2.43;31.00
47080;BME280;33067;49.296;14.470;2023-04-04T11:25:59;97675.74;;;2.92;30.44
47080;BME280;33067;49.296;14.470;2023-04-04T11:28:27;97675.43;;;3.24;29.90
47080;BME280;33067;49.296;14.470;2023-04-04T11:33:25;97676.48;;;3.57;29.57
47080;BME280;33067;49.296;14.470;2023-04-04T11:35:46;97664.34;;;3.59;28.71
47080;BME280;33067;49.296;14.470;2023-04-04T11:38:13;97663.72;;;5.07;28.11
47080;BME280;33067;49.296;14.470;2023-04-04T11:40:35;97665.64;;;4.52;27.63
47080;BME280;33067;49.296;14.470;2023-04-04T11:42:58;97651.74;;;4.63;27.32
47080;BME280;33067;49.296;14.470;2023-04-04T11:45:24;97648.95;;;5.18;26.32
47080;BME280;33067;49.296;14.470;2023-04-04T11:47:49;97652.66;;;4.02;26.96
47080;BME280;33067;49.296;14.470;2023-04-04T11:50:15;97656.97;;;4.38;26.79
47080;BME280;33067;49.296;14.470;2023-04-04T11:52:41;97656.77;;;4.24;26.76
47080;BME280;33067;49.296;14.470;2023-04-04T11:55:13;97643.87;;;3.86;26.86
47080;BME280;33067;49.296;14.470;2023-04-04T11:57:32;97639.54;;;5.46;26.45
47080;BME280;33067;49.296;14.470;2023-04-04T11:59:56;97636.99;;;3.86;28.59
47080;BME280;33067;49.296;14.470;2023-04-04T12:02:25;97642.02;;;3.02;29.45
47080;BME280;33067;49.296;14.470;2023-04-04T12:04:50;97638.08;;;3.25;29.08
47080;BME280;33067;49.296;14.470;2023-04-04T12:07:13;97636.32;;;3.72;28.74
47080;BME280;33067;49.296;14.470;2023-04-04T12:09:39;97641.79;;;2.96;29.29
47080;BME280;33067;49.296;14.470;2023-04-04T12:12:04;97629.41;;;3.61;28.50
47080;BME280;33067;49.296;14.470;2023-04-04T12:14:31;97635.19;;;4.57;27.96
47080;BME280;33067;49.296;14.470;2023-04-04T12:16:55;97630.27;;;3.77;27.40
47080;BME280;33067;49.296;14.470;2023-04-04T12:19:22;97628.06;;;4.32;26.68
47080;BME280;33067;49.296;14.470;2023-04-04T12:21:46;97621.99;;;4.95;25.48
47080;BME280;33067;49.296;14.470;2023-04-04T12:24:12;97624.60;;;5.27;26.85
47080;BME280;33067;49.296;14.470;2023-04-04T12:26:39;97621.41;;;5.25;25.95
47080;BME280;33067;49.296;14.470;2023-04-04T12:29:03;97622.96;;;5.54;25.70
47080;BME280;33067;49.296;14.470;2023-04-04T12:31:29;97615.85;;;5.14;25.00
47080;BME280;33067;49.296;14.470;2023-04-04T12:33:53;97608.42;;;5.87;25.78
47080;BME280;33067;49.296;14.470;2023-04-04T12:36:19;97604.94;;;4.99;26.44
47080;BME280;33067;49.296;14.470;2023-04-04T12:38:56;97614.67;;;3.96;27.47
47080;BME280;33067;49.296;14.470;2023-04-04T12:41:16;97607.44;;;4.03;27.99
47080;BME280;33067;49.296;14.470;2023-04-04T12:43:40;97607.88;;;4.49;28.02
47080;BME280;33067;49.296;14.470;2023-04-04T12:46:01;97617.50;;;3.62;29.12
47080;BME280;33067;49.296;14.470;2023-04-04T12:48:27;97607.69;;;4.79;27.26
47080;BME280;33067;49.296;14.470;2023-04-04T12:50:54;97599.91;;;3.05;28.25
47080;BME280;33067;49.296;14.470;2023-04-04T12:53:20;97594.89;;;3.86;28.19
47080;BME280;33067;49.296;14.470;2023-04-04T12:55:45;97604.42;;;4.34;27.81
47080;BME280;33067;49.296;14.470;2023-04-04T12:58:09;97595.29;;;4.17;27.45
47080;BME280;33067;49.296;14.470;2023-04-04T13:00:34;97597.83;;;4.34;26.67